createdAt,value
2022-11-25T00:05:34.869Z,2.75
2022-11-25T00:15:36.165Z,2.69
2022-11-25T00:25:37.557Z,2.76
2022-11-25T00:35:38.989Z,2.83
2022-11-25T00:45:40.507Z,2.97
2022-11-25T00:56:00.630Z,2.94
2022-11-25T01:06:01.995Z,2.96
2022-11-25T01:16:03.389Z,3.13
2022-11-25T01:26:04.810Z,3.15
2022-11-25T01:36:06.148Z,3.15
2022-11-25T01:46:07.531Z,3.23
2022-11-25T01:56:08.982Z,3.24
2022-11-25T02:06:10.449Z,3.19
2022-11-25T02:16:11.902Z,3.18
2022-11-25T02:26:13.351Z,3.16
2022-11-25T02:36:14.773Z,3.12
2022-11-25T02:46:21.546Z,3.22
2022-11-25T02:56:23.437Z,3.19
2022-11-25T03:06:24.808Z,3.10
2022-11-25T03:16:26.202Z,2.80
2022-11-25T03:26:27.771Z,2.80
2022-11-25T03:36:29.150Z,3.04
2022-11-25T03:46:30.525Z,3.19
2022-11-25T03:56:32.071Z,3.31
2022-11-25T04:06:33.551Z,3.07
2022-11-25T04:16:35.042Z,3.17
2022-11-25T04:26:36.494Z,3.29
2022-11-25T04:36:37.856Z,3.37
2022-11-25T04:46:39.318Z,3.15
2022-11-25T04:56:40.685Z,2.99
2022-11-25T05:06:42.056Z,2.81
2022-11-25T05:16:43.640Z,2.63
2022-11-25T05:26:45.077Z,2.62
2022-11-25T05:36:46.467Z,2.60
2022-11-25T05:46:49.042Z,2.79
2022-11-25T05:56:50.475Z,2.93
2022-11-25T06:06:51.835Z,3.11
2022-11-25T06:16:53.536Z,3.19
2022-11-25T06:26:54.947Z,3.35
2022-11-25T06:36:56.621Z,3.53
2022-11-25T06:46:58.014Z,3.69
2022-11-25T06:56:59.437Z,3.80
2022-11-25T07:07:00.797Z,3.96
2022-11-25T07:17:03.469Z,3.97
2022-11-25T07:27:07.042Z,4.02
2022-11-25T07:37:08.420Z,4.17
2022-11-25T07:47:09.786Z,4.38
2022-11-25T07:57:11.156Z,4.66
2022-11-25T08:07:12.588Z,4.81
2022-11-25T08:17:14.052Z,4.85
2022-11-25T08:27:15.441Z,5.00
2022-11-25T08:37:16.866Z,5.16
2022-11-25T08:47:18.123Z,5.26
2022-11-25T08:57:19.517Z,5.38
2022-11-25T09:07:22.175Z,5.61
2022-11-25T09:17:27.462Z,5.88
2022-11-25T09:27:28.842Z,6.05
2022-11-25T09:37:30.235Z,6.20
2022-11-25T09:47:31.506Z,6.36
2022-11-25T09:57:32.887Z,6.59
2022-11-25T10:07:34.341Z,6.81
2022-11-25T10:17:35.816Z,7.14
2022-11-25T10:27:37.568Z,7.36
2022-11-25T10:37:39.015Z,7.41
2022-11-25T10:47:40.524Z,7.62
2022-11-25T10:57:41.993Z,7.76
2022-11-25T11:07:43.469Z,8.04
2022-11-25T11:17:44.875Z,8.12
2022-11-25T11:27:46.265Z,8.33
2022-11-25T11:37:47.630Z,8.43
2022-11-25T11:47:49.020Z,8.58
2022-11-25T11:57:50.382Z,8.65
2022-11-25T12:07:51.833Z,8.64
2022-11-25T12:17:53.227Z,8.85
2022-11-25T12:27:54.766Z,9.13
2022-11-25T12:37:56.014Z,9.46
2022-11-25T12:47:57.391Z,9.55
2022-11-25T12:57:58.899Z,9.50
2022-11-25T13:08:00.205Z,9.60
2022-11-25T13:18:01.658Z,9.62
2022-11-25T13:28:03.059Z,9.55
2022-11-25T13:38:04.297Z,9.41
2022-11-25T13:48:05.665Z,9.33
2022-11-25T13:58:06.909Z,9.40
2022-11-25T14:08:08.296Z,9.33
2022-11-25T14:18:09.728Z,9.28
2022-11-25T14:28:11.273Z,9.20
2022-11-25T14:38:12.649Z,9.13
2022-11-25T14:48:14.077Z,9.13
2022-11-25T14:58:15.437Z,9.12
2022-11-25T15:08:22.172Z,9.00
2022-11-25T15:18:23.596Z,9.02
2022-11-25T15:28:24.951Z,8.85
2022-11-25T15:38:26.337Z,8.66
2022-11-25T15:48:27.705Z,8.40
2022-11-25T15:58:29.042Z,8.06
2022-11-25T16:08:30.539Z,7.81
2022-11-25T16:18:40.227Z,7.62
2022-11-25T16:28:42.246Z,7.49
2022-11-25T16:38:43.639Z,7.37
2022-11-25T16:48:45.052Z,7.28
2022-11-25T16:58:46.365Z,7.12
2022-11-25T17:08:47.893Z,7.07
2022-11-25T17:18:49.332Z,7.13
2022-11-25T17:28:50.690Z,7.15
2022-11-25T17:38:52.064Z,7.11
2022-11-25T17:48:53.492Z,7.00
2022-11-25T17:58:54.763Z,6.83
2022-11-25T18:08:56.436Z,6.59
2022-11-25T18:18:58.038Z,6.42
2022-11-25T18:28:59.419Z,6.26
2022-11-25T18:39:00.809Z,6.23
2022-11-25T18:49:03.205Z,6.16
2022-11-25T18:59:04.708Z,6.09
2022-11-25T19:09:07.116Z,6.01
2022-11-25T19:19:08.403Z,5.96
2022-11-25T19:29:11.576Z,6.06
2022-11-25T19:39:12.953Z,6.12
2022-11-25T19:49:15.098Z,6.16
2022-11-25T19:59:16.449Z,6.21
2022-11-25T20:09:18.042Z,6.26
2022-11-25T20:19:19.525Z,6.29
2022-11-25T20:29:24.552Z,6.28
2022-11-25T20:39:28.925Z,6.29
2022-11-25T20:49:30.397Z,6.34
2022-11-25T20:59:31.790Z,6.35
2022-11-25T21:09:33.238Z,6.37
2022-11-25T21:19:34.728Z,6.42
2022-11-25T21:29:36.500Z,6.47
2022-11-25T21:39:38.093Z,6.51
2022-11-25T21:49:39.420Z,6.48
2022-11-25T21:59:40.826Z,6.43
2022-11-25T22:09:42.225Z,6.30
2022-11-25T22:19:43.602Z,6.16
2022-11-25T22:29:45.019Z,5.91
2022-11-25T22:39:46.484Z,5.69
2022-11-25T22:49:47.890Z,5.55
2022-11-25T22:59:49.339Z,5.40
2022-11-25T23:09:50.711Z,5.26
2022-11-25T23:19:51.964Z,5.15
2022-11-25T23:29:53.454Z,5.08
2022-11-25T23:39:54.822Z,4.97
2022-11-25T23:49:56.363Z,4.95
2022-11-25T23:59:57.795Z,4.75
